sensor_id;sensor_type;location;lat;lon;timestamp;temperature;humidity
40287;DHT22;25998;46.604;13.610;2023-06-26T00:01:18;18.10;99.70
40287;DHT22;25998;46.604;13.610;2023-06-26T00:04:32;18.30;99.50
40287;DHT22;25998;46.604;13.610;2023-06-26T00:07:43;18.50;99.20
40287;DHT22;25998;46.604;13.610;2023-06-26T00:10:54;18.60;99.10
40287;DHT22;25998;46.604;13.610;2023-06-26T00:14:05;18.50;99.20
40287;DHT22;25998;46.604;13.610;2023-06-26T00:17:16;18.30;99.50
40287;DHT22;25998;46.604;13.610;2023-06-26T00:20:27;18.20;99.80
40287;DHT22;25998;46.604;13.610;2023-06-26T00:23:38;18.40;99.50
40287;DHT22;25998;46.604;13.610;2023-06-26T00:26:49;18.60;99.20
40287;DHT22;25998;46.604;13.610;2023-06-26T00:30:00;18.70;98.90
40287;DHT22;25998;46.604;13.610;2023-06-26T00:33:11;18.70;98.90
40287;DHT22;25998;46.604;13.610;2023-06-26T00:36:22;18.70;98.80
40287;DHT22;25998;46.604;13.610;2023-06-26T00:39:36;18.70;99.00
40287;DHT22;25998;46.604;13.610;2023-06-26T00:42:47;18.70;99.10
40287;DHT22;25998;46.604;13.610;2023-06-26T00:45:58;18.70;98.90
40287;DHT22;25998;46.604;13.610;2023-06-26T00:49:10;18.60;99.10
40287;DHT22;25998;46.604;13.610;2023-06-26T00:52:21;18.30;99.50
40287;DHT22;25998;46.604;13.610;2023-06-26T00:55:32;18.10;99.90
40287;DHT22;25998;46.604;13.610;2023-06-26T00:58:42;18.30;99.90
40287;DHT22;25998;46.604;13.610;2023-06-26T01:01:53;18.40;99.30
40287;DHT22;25998;46.604;13.610;2023-06-26T01:05:05;18.40;99.50
40287;DHT22;25998;46.604;13.610;2023-06-26T01:08:18;18.40;99.50
40287;DHT22;25998;46.604;13.610;2023-06-26T01:11:29;18.40;99.60
40287;DHT22;25998;46.604;13.610;2023-06-26T01:14:40;18.20;99.80
40287;DHT22;25998;46.604;13.610;2023-06-26T01:17:51;18.20;99.90
40287;DHT22;25998;46.604;13.610;2023-06-26T01:21:04;18.10;99.90
40287;DHT22;25998;46.604;13.610;2023-06-26T01:24:18;18.10;99.80
40287;DHT22;25998;46.604;13.610;2023-06-26T01:27:38;18.10;99.90
40287;DHT22;25998;46.604;13.610;2023-06-26T01:30:51;17.80;99.90
40287;DHT22;25998;46.604;13.610;2023-06-26T01:34:02;17.70;99.90
40287;DHT22;25998;46.604;13.610;2023-06-26T01:37:13;17.60;99.90
40287;DHT22;25998;46.604;13.610;2023-06-26T01:40:24;17.80;99.90
40287;DHT22;25998;46.604;13.610;2023-06-26T01:47:18;18.00;99.90
40287;DHT22;25998;46.604;13.610;2023-06-26T01:50:32;18.10;99.90
40287;DHT22;25998;46.604;13.610;2023-06-26T01:53:46;18.00;99.90
40287;DHT22;25998;46.604;13.610;2023-06-26T01:57:01;17.90;99.90
40287;DHT22;25998;46.604;13.610;2023-06-26T02:00:15;17.80;99.90
40287;DHT22;25998;46.604;13.610;2023-06-26T02:03:28;17.80;99.90
40287;DHT22;25998;46.604;13.610;2023-06-26T02:06:40;17.80;99.90
40287;DHT22;25998;46.604;13.610;2023-06-26T02:09:51;17.70;99.90
40287;DHT22;25998;46.604;13.610;2023-06-26T02:13:02;17.50;99.90
40287;DHT22;25998;46.604;13.610;2023-06-26T02:16:13;17.50;99.90
40287;DHT22;25998;46.604;13.610;2023-06-26T02:19:24;17.50;99.90
40287;DHT22;25998;46.604;13.610;2023-06-26T02:22:35;17.60;99.90
40287;DHT22;25998;46.604;13.610;2023-06-26T02:25:46;17.60;99.90
40287;DHT22;25998;46.604;13.610;2023-06-26T02:28:57;17.80;99.90
40287;DHT22;25998;46.604;13.610;2023-06-26T02:32:08;17.80;99.90
40287;DHT22;25998;46.604;13.610;2023-06-26T02:35:19;17.70;99.90
40287;DHT22;25998;46.604;13.610;2023-06-26T02:38:30;17.70;99.90
40287;DHT22;25998;46.604;13.610;2023-06-26T02:41:41;17.80;99.90
40287;DHT22;25998;46.604;13.610;2023-06-26T02:44:52;17.80;99.90
40287;DHT22;25998;46.604;13.610;2023-06-26T02:48:03;17.60;99.90
40287;DHT22;25998;46.604;13.610;2023-06-26T02:51:14;17.20;99.90
40287;DHT22;25998;46.604;13.610;2023-06-26T02:54:24;16.90;99.90
40287;DHT22;25998;46.604;13.610;2023-06-26T02:57:35;16.90;99.90
40287;DHT22;25998;46.604;13.610;2023-06-26T03:00:46;16.90;99.90
40287;DHT22;25998;46.604;13.610;2023-06-26T03:03:57;17.00;99.90
40287;DHT22;25998;46.604;13.610;2023-06-26T03:07:11;17.30;99.90
40287;DHT22;25998;46.604;13.610;2023-06-26T03:10:22;17.20;99.90
40287;DHT22;25998;46.604;13.610;2023-06-26T03:13:36;17.00;99.90
40287;DHT22;25998;46.604;13.610;2023-06-26T03:16:47;17.00;99.90
40287;DHT22;25998;46.604;13.610;2023-06-26T03:19:58;17.10;99.90
40287;DHT22;25998;46.604;13.610;2023-06-26T03:23:09;17.20;99.90
40287;DHT22;25998;46.604;13.610;2023-06-26T03:26:20;17.00;99.90
40287;DHT22;25998;46.604;13.610;2023-06-26T03:29:30;16.90;99.90
40287;DHT22;25998;46.604;13.610;2023-06-26T03:32:41;16.90;99.90
40287;DHT22;25998;46.604;13.610;2023-06-26T03:35:52;16.90;99.90
40287;DHT22;25998;46.604;13.610;2023-06-26T03:39:03;17.00;99.90
40287;DHT22;25998;46.604;13.610;2023-06-26T03:42:15;17.20;99.90
40287;DHT22;25998;46.604;13.610;2023-06-26T03:45:26;17.30;99.90
40287;DHT22;25998;46.604;13.610;2023-06-26T03:48:36;17.30;99.90
40287;DHT22;25998;46.604;13.610;2023-06-26T03:51:48;17.20;99.90
40287;DHT22;25998;46.604;13.610;2023-06-26T03:54:59;17.20;99.90
40287;DHT22;25998;46.604;13.610;2023-06-26T03:58:10;17.10;99.90
40287;DHT22;25998;46.604;13.610;2023-06-26T04:01:21;17.10;99.90
40287;DHT22;25998;46.604;13.610;2023-06-26T04:04:32;17.00;99.90
40287;DHT22;25998;46.604;13.610;2023-06-26T04:07:43;17.20;99.90
40287;DHT22;25998;46.604;13.610;2023-06-26T04:10:54;17.10;99.90
40287;DHT22;25998;46.604;13.610;2023-06-26T04:14:07;17.20;99.90
40287;DHT22;25998;46.604;13.610;2023-06-26T04:17:18;17.20;99.90
40287;DHT22;25998;46.604;13.610;2023-06-26T04:20:30;17.20;99.90
40287;DHT22;25998;46.604;13.610;2023-06-26T04:23:41;17.00;99.90
40287;DHT22;25998;46.604;13.610;2023-06-26T04:26:52;17.20;99.90
40287;DHT22;25998;46.604;13.610;2023-06-26T04:30:03;17.20;99.90
40287;DHT22;25998;46.604;13.610;2023-06-26T04:33:15;17.30;99.90
40287;DHT22;25998;46.604;13.610;2023-06-26T04:36:26;17.10;99.90
40287;DHT22;25998;46.604;13.610;2023-06-26T04:39:40;16.80;99.90
40287;DHT22;25998;46.604;13.610;2023-06-26T04:42:50;16.70;99.90
40287;DHT22;25998;46.604;13.610;2023-06-26T04:46:04;16.80;99.90
40287;DHT22;25998;46.604;13.610;2023-06-26T04:49:16;16.80;99.90
40287;DHT22;25998;46.604;13.610;2023-06-26T04:52:28;16.70;99.90
40287;DHT22;25998;46.604;13.610;2023-06-26T04:55:39;16.60;99.90
40287;DHT22;25998;46.604;13.610;2023-06-26T04:58:49;16.60;99.90
40287;DHT22;25998;46.604;13.610;2023-06-26T05:02:00;16.50;99.90
40287;DHT22;25998;46.604;13.610;2023-06-26T05:05:11;16.50;99.90
40287;DHT22;25998;46.604;13.610;2023-06-26T05:08:23;16.60;99.90
40287;DHT22;25998;46.604;13.610;2023-06-26T05:11:36;16.60;99.90
40287;DHT22;25998;46.604;13.610;2023-06-26T05:14:47;16.80;99.90
40287;DHT22;25998;46.604;13.610;2023-06-26T05:17:58;17.10;99.90
40287;DHT22;25998;46.604;13.610;2023-06-26T05:21:09;17.20;99.90
40287;DHT22;25998;46.604;13.610;2023-06-26T05:24:21;17.20;99.90
40287;DHT22;25998;46.604;13.610;2023-06-26T05:27:32;17.20;99.90
40287;DHT22;25998;46.604;13.610;2023-06-26T05:30:43;17.30;99.90
40287;DHT22;25998;46.604;13.610;2023-06-26T05:33:55;17.40;99.90
40287;DHT22;25998;46.604;13.610;2023-06-26T05:37:08;17.40;99.90
40287;DHT22;25998;46.604;13.610;2023-06-26T05:40:19;17.50;99.90
40287;DHT22;25998;46.604;13.610;2023-06-26T05:43:30;17.50;99.90
40287;DHT22;25998;46.604;13.610;2023-06-26T05:46:41;17.80;99.90
40287;DHT22;25998;46.604;13.610;2023-06-26T05:49:52;18.40;99.90
40287;DHT22;25998;46.604;13.610;2023-06-26T05:53:03;19.10;99.90
40287;DHT22;25998;46.604;13.610;2023-06-26T05:56:16;19.60;99.90
40287;DHT22;25998;46.604;13.610;2023-06-26T05:59:33;19.90;99.90
40287;DHT22;25998;46.604;13.610;2023-06-26T06:02:46;20.60;99.90
40287;DHT22;25998;46.604;13.610;2023-06-26T06:05:56;21.30;98.90
40287;DHT22;25998;46.604;13.610;2023-06-26T06:09:07;21.80;98.40
40287;DHT22;25998;46.604;13.610;2023-06-26T06:12:18;22.20;97.70
40287;DHT22;25998;46.604;13.610;2023-06-26T06:15:29;22.40;97.30
40287;DHT22;25998;46.604;13.610;2023-06-26T06:18:40;22.80;96.80
40287;DHT22;25998;46.604;13.610;2023-06-26T06:21:51;23.10;96.50
40287;DHT22;25998;46.604;13.610;2023-06-26T06:25:01;23.40;95.60
40287;DHT22;25998;46.604;13.610;2023-06-26T06:28:12;23.60;97.00
40287;DHT22;25998;46.604;13.610;2023-06-26T06:31:26;23.80;96.40
40287;DHT22;25998;46.604;13.610;2023-06-26T06:34:40;23.90;95.90
40287;DHT22;25998;46.604;13.610;2023-06-26T06:37:51;24.10;95.70
40287;DHT22;25998;46.604;13.610;2023-06-26T06:41:02;24.10;95.80
40287;DHT22;25998;46.604;13.610;2023-06-26T06:44:13;24.40;96.20
40287;DHT22;25998;46.604;13.610;2023-06-26T06:47:23;24.60;95.60
40287;DHT22;25998;46.604;13.610;2023-06-26T06:50:34;24.70;94.70
40287;DHT22;25998;46.604;13.610;2023-06-26T06:53:45;25.00;94.90
40287;DHT22;25998;46.604;13.610;2023-06-26T06:56:56;24.90;94.80
40287;DHT22;25998;46.604;13.610;2023-06-26T07:00:09;24.90;95.00
40287;DHT22;25998;46.604;13.610;2023-06-26T07:03:20;24.40;95.40
40287;DHT22;25998;46.604;13.610;2023-06-26T07:06:32;24.50;95.00
40287;DHT22;25998;46.604;13.610;2023-06-26T07:09:42;24.80;94.70
40287;DHT22;25998;46.604;13.610;2023-06-26T07:12:56;24.60;94.80
40287;DHT22;25998;46.604;13.610;2023-06-26T07:16:07;24.60;95.00
40287;DHT22;25998;46.604;13.610;2023-06-26T07:19:18;24.70;95.30
40287;DHT22;25998;46.604;13.610;2023-06-26T07:22:28;24.90;95.40
40287;DHT22;25998;46.604;13.610;2023-06-26T07:25:39;25.20;94.60
40287;DHT22;25998;46.604;13.610;2023-06-26T07:28:50;25.50;93.50
40287;DHT22;25998;46.604;13.610;2023-06-26T07:32:01;25.60;94.00
40287;DHT22;25998;46.604;13.610;2023-06-26T07:35:12;25.70;94.20
40287;DHT22;25998;46.604;13.610;2023-06-26T07:38:23;25.80;93.70
40287;DHT22;25998;46.604;13.610;2023-06-26T07:41:33;25.90;93.80
40287;DHT22;25998;46.604;13.610;2023-06-26T07:44:44;25.90;93.90
40287;DHT22;25998;46.604;13.610;2023-06-26T07:47:55;25.50;93.10
40287;DHT22;25998;46.604;13.610;2023-06-26T07:51:06;25.50;94.00
40287;DHT22;25998;46.604;13.610;2023-06-26T07:54:17;25.90;93.10
40287;DHT22;25998;46.604;13.610;2023-06-26T07:57:28;26.40;92.90
40287;DHT22;25998;46.604;13.610;2023-06-26T08:00:40;26.20;92.40
40287;DHT22;25998;46.604;13.610;2023-06-26T08:03:51;26.40;92.00
40287;DHT22;25998;46.604;13.610;2023-06-26T08:07:02;26.60;92.40
40287;DHT22;25998;46.604;13.610;2023-06-26T08:10:14;26.80;92.10
40287;DHT22;25998;46.604;13.610;2023-06-26T08:13:25;26.50;93.50
40287;DHT22;25998;46.604;13.610;2023-06-26T08:16:36;26.80;92.80
40287;DHT22;25998;46.604;13.610;2023-06-26T08:19:47;26.90;92.50
40287;DHT22;25998;46.604;13.610;2023-06-26T08:22:57;26.60;92.70
40287;DHT22;25998;46.604;13.610;2023-06-26T08:26:08;26.70;92.40
40287;DHT22;25998;46.604;13.610;2023-06-26T08:29:19;26.60;93.10
40287;DHT22;25998;46.604;13.610;2023-06-26T08:32:30;26.90;92.80
40287;DHT22;25998;46.604;13.610;2023-06-26T08:35:41;27.20;93.40
40287;DHT22;25998;46.604;13.610;2023-06-26T08:39:02;27.50;91.40
40287;DHT22;25998;46.604;13.610;2023-06-26T08:42:15;27.60;92.30
40287;DHT22;25998;46.604;13.610;2023-06-26T08:45:26;27.30;92.40
40287;DHT22;25998;46.604;13.610;2023-06-26T08:48:40;27.10;91.80
40287;DHT22;25998;46.604;13.610;2023-06-26T08:52:02;27.70;93.60
40287;DHT22;25998;46.604;13.610;2023-06-26T08:55:15;27.90;92.40
40287;DHT22;25998;46.604;13.610;2023-06-26T08:58:27;27.80;92.10
40287;DHT22;25998;46.604;13.610;2023-06-26T09:01:38;27.80;92.60
40287;DHT22;25998;46.604;13.610;2023-06-26T09:04:50;27.90;91.90
40287;DHT22;25998;46.604;13.610;2023-06-26T09:08:01;28.00;92.80
40287;DHT22;25998;46.604;13.610;2023-06-26T09:11:12;28.10;91.50
40287;DHT22;25998;46.604;13.610;2023-06-26T09:14:24;28.10;91.80
40287;DHT22;25998;46.604;13.610;2023-06-26T09:17:39;28.20;92.30
40287;DHT22;25998;46.604;13.610;2023-06-26T09:20:51;28.00;92.90
40287;DHT22;25998;46.604;13.610;2023-06-26T09:24:03;28.20;92.60
40287;DHT22;25998;46.604;13.610;2023-06-26T09:27:14;28.20;92.90
40287;DHT22;25998;46.604;13.610;2023-06-26T09:30:26;28.20;91.40
40287;DHT22;25998;46.604;13.610;2023-06-26T09:33:38;28.50;91.50
40287;DHT22;25998;46.604;13.610;2023-06-26T09:36:53;28.50;91.40
40287;DHT22;25998;46.604;13.610;2023-06-26T09:40:08;28.70;91.00
40287;DHT22;25998;46.604;13.610;2023-06-26T09:43:19;28.70;91.50
40287;DHT22;25998;46.604;13.610;2023-06-26T09:46:30;28.70;90.80
40287;DHT22;25998;46.604;13.610;2023-06-26T09:49:42;28.50;90.70
40287;DHT22;25998;46.604;13.610;2023-06-26T09:52:53;28.50;91.40
40287;DHT22;25998;46.604;13.610;2023-06-26T09:56:07;28.70;92.00
40287;DHT22;25998;46.604;13.610;2023-06-26T09:59:26;29.20;91.20
40287;DHT22;25998;46.604;13.610;2023-06-26T10:02:37;29.20;90.50
40287;DHT22;25998;46.604;13.610;2023-06-26T10:05:51;29.30;90.60
40287;DHT22;25998;46.604;13.610;2023-06-26T10:09:03;29.20;91.00
40287;DHT22;25998;46.604;13.610;2023-06-26T10:12:20;29.10;90.90
40287;DHT22;25998;46.604;13.610;2023-06-26T10:15:32;29.00;90.80
40287;DHT22;25998;46.604;13.610;2023-06-26T10:18:46;29.30;90.20
40287;DHT22;25998;46.604;13.610;2023-06-26T10:21:58;29.70;88.80
40287;DHT22;25998;46.604;13.610;2023-06-26T10:25:14;29.60;90.40
40287;DHT22;25998;46.604;13.610;2023-06-26T10:28:28;30.00;91.10
40287;DHT22;25998;46.604;13.610;2023-06-26T10:31:44;30.40;92.20
40287;DHT22;25998;46.604;13.610;2023-06-26T10:34:56;30.10;87.40
40287;DHT22;25998;46.604;13.610;2023-06-26T10:38:07;30.10;89.20
40287;DHT22;25998;46.604;13.610;2023-06-26T10:41:23;30.10;89.00
40287;DHT22;25998;46.604;13.610;2023-06-26T10:44:41;30.00;90.10
40287;DHT22;25998;46.604;13.610;2023-06-26T10:47:52;29.90;90.60
40287;DHT22;25998;46.604;13.610;2023-06-26T10:51:16;30.00;89.10
40287;DHT22;25998;46.604;13.610;2023-06-26T10:54:31;30.20;89.50
40287;DHT22;25998;46.604;13.610;2023-06-26T10:57:45;30.40;89.80
40287;DHT22;25998;46.604;13.610;2023-06-26T11:04:50;30.50;88.60
40287;DHT22;25998;46.604;13.610;2023-06-26T11:08:09;30.30;88.80
40287;DHT22;25998;46.604;13.610;2023-06-26T11:11:22;30.40;90.30
40287;DHT22;25998;46.604;13.610;2023-06-26T11:14:53;30.60;89.60
40287;DHT22;25998;46.604;13.610;2023-06-26T11:18:04;31.00;87.50
40287;DHT22;25998;46.604;13.610;2023-06-26T11:21:15;31.00;89.10
40287;DHT22;25998;46.604;13.610;2023-06-26T11:24:26;30.80;87.00
40287;DHT22;25998;46.604;13.610;2023-06-26T11:27:41;30.70;89.00
40287;DHT22;25998;46.604;13.610;2023-06-26T11:30:52;30.80;88.00
40287;DHT22;25998;46.604;13.610;2023-06-26T11:34:08;30.80;86.90
40287;DHT22;25998;46.604;13.610;2023-06-26T11:37:22;30.90;87.70
40287;DHT22;25998;46.604;13.610;2023-06-26T11:40:34;30.90;86.10
40287;DHT22;25998;46.604;13.610;2023-06-26T11:43:45;30.80;87.20
40287;DHT22;25998;46.604;13.610;2023-06-26T11:46:57;30.60;86.80
40287;DHT22;25998;46.604;13.610;2023-06-26T11:50:15;30.50;82.80
40287;DHT22;25998;46.604;13.610;2023-06-26T11:53:27;30.60;83.50
40287;DHT22;25998;46.604;13.610;2023-06-26T11:56:37;30.80;86.20
40287;DHT22;25998;46.604;13.610;2023-06-26T11:59:50;30.80;82.30
40287;DHT22;25998;46.604;13.610;2023-06-26T12:03:01;31.10;85.50
40287;DHT22;25998;46.604;13.610;2023-06-26T12:06:14;31.10;86.20
40287;DHT22;25998;46.604;13.610;2023-06-26T12:09:26;31.00;83.40
40287;DHT22;25998;46.604;13.610;2023-06-26T12:12:38;30.90;83.30
40287;DHT22;25998;46.604;13.610;2023-06-26T12:15:49;31.00;81.70
40287;DHT22;25998;46.604;13.610;2023-06-26T12:19:02;31.20;83.50
40287;DHT22;25998;46.604;13.610;2023-06-26T12:22:13;31.40;82.50
40287;DHT22;25998;46.604;13.610;2023-06-26T12:25:24;31.80;83.20
40287;DHT22;25998;46.604;13.610;2023-06-26T12:28:38;32.00;81.80
40287;DHT22;25998;46.604;13.610;2023-06-26T12:31:51;31.80;78.80
40287;DHT22;25998;46.604;13.610;2023-06-26T12:35:02;32.00;80.80
40287;DHT22;25998;46.604;13.610;2023-06-26T12:38:14;32.00;82.20
40287;DHT22;25998;46.604;13.610;2023-06-26T12:41:26;31.60;80.60
40287;DHT22;25998;46.604;13.610;2023-06-26T12:44:36;31.50;80.30
40287;DHT22;25998;46.604;13.610;2023-06-26T12:47:47;31.50;78.90
40287;DHT22;25998;46.604;13.610;2023-06-26T12:50:58;31.60;82.80
40287;DHT22;25998;46.604;13.610;2023-06-26T12:54:09;31.60;83.10
40287;DHT22;25998;46.604;13.610;2023-06-26T12:57:21;31.50;79.90
40287;DHT22;25998;46.604;13.610;2023-06-26T13:00:31;31.60;76.10
40287;DHT22;25998;46.604;13.610;2023-06-26T13:03:42;31.80;78.10
40287;DHT22;25998;46.604;13.610;2023-06-26T13:06:53;31.90;80.10
40287;DHT22;25998;46.604;13.610;2023-06-26T13:10:06;31.70;81.90
40287;DHT22;25998;46.604;13.610;2023-06-26T13:13:17;31.50;80.50
40287;DHT22;25998;46.604;13.610;2023-06-26T13:16:28;31.30;79.00
40287;DHT22;25998;46.604;13.610;2023-06-26T13:19:40;31.30;80.90
40287;DHT22;25998;46.604;13.610;2023-06-26T13:22:51;31.50;79.80
40287;DHT22;25998;46.604;13.610;2023-06-26T13:26:05;31.60;78.80
40287;DHT22;25998;46.604;13.610;2023-06-26T13:29:16;31.60;78.40
40287;DHT22;25998;46.604;13.610;2023-06-26T13:32:27;31.40;77.10
40287;DHT22;25998;46.604;13.610;2023-06-26T13:35:37;31.80;77.80
40287;DHT22;25998;46.604;13.610;2023-06-26T13:38:48;31.90;80.40
40287;DHT22;25998;46.604;13.610;2023-06-26T13:42:05;31.70;78.50
40287;DHT22;25998;46.604;13.610;2023-06-26T13:45:17;31.70;79.30
40287;DHT22;25998;46.604;13.610;2023-06-26T13:48:28;31.80;77.30
40287;DHT22;25998;46.604;13.610;2023-06-26T13:51:39;32.00;78.10
40287;DHT22;25998;46.604;13.610;2023-06-26T13:54:56;32.00;79.50
40287;DHT22;25998;46.604;13.610;2023-06-26T13:58:07;32.30;80.10
40287;DHT22;25998;46.604;13.610;2023-06-26T14:01:18;32.20;80.00
40287;DHT22;25998;46.604;13.610;2023-06-26T14:04:29;32.00;78.20
40287;DHT22;25998;46.604;13.610;2023-06-26T14:07:41;32.50;80.30
40287;DHT22;25998;46.604;13.610;2023-06-26T14:10:54;32.40;78.50
40287;DHT22;25998;46.604;13.610;2023-06-26T14:14:04;32.30;78.80
40287;DHT22;25998;46.604;13.610;2023-06-26T14:17:15;32.30;75.40
40287;DHT22;25998;46.604;13.610;2023-06-26T14:20:26;32.40;78.80
40287;DHT22;25998;46.604;13.610;2023-06-26T14:23:38;32.20;75.20
40287;DHT22;25998;46.604;13.610;2023-06-26T14:26:49;32.10;77.40
40287;DHT22;25998;46.604;13.610;2023-06-26T14:30:00;32.00;77.20
40287;DHT22;25998;46.604;13.610;2023-06-26T14:33:11;32.00;77.50
40287;DHT22;25998;46.604;13.610;2023-06-26T14:36:22;32.10;76.70
40287;DHT22;25998;46.604;13.610;2023-06-26T14:39:32;32.20;77.00
40287;DHT22;25998;46.604;13.610;2023-06-26T14:42:43;32.50;76.80
40287;DHT22;25998;46.604;13.610;2023-06-26T14:45:56;32.50;75.00
40287;DHT22;25998;46.604;13.610;2023-06-26T14:49:07;32.60;78.20
40287;DHT22;25998;46.604;13.610;2023-06-26T14:52:18;32.70;78.00
40287;DHT22;25998;46.604;13.610;2023-06-26T14:55:29;32.50;77.80
40287;DHT22;25998;46.604;13.610;2023-06-26T14:58:39;32.30;75.80
40287;DHT22;25998;46.604;13.610;2023-06-26T15:01:50;32.20;78.20
40287;DHT22;25998;46.604;13.610;2023-06-26T15:05:01;32.30;75.00
40287;DHT22;25998;46.604;13.610;2023-06-26T15:08:12;32.20;76.00
40287;DHT22;25998;46.604;13.610;2023-06-26T15:11:23;32.50;74.90
40287;DHT22;25998;46.604;13.610;2023-06-26T15:14:34;32.50;76.20
40287;DHT22;25998;46.604;13.610;2023-06-26T15:17:45;32.40;77.20
40287;DHT22;25998;46.604;13.610;2023-06-26T15:20:56;32.30;81.00
40287;DHT22;25998;46.604;13.610;2023-06-26T15:24:07;32.30;74.00
40287;DHT22;25998;46.604;13.610;2023-06-26T15:27:18;32.10;77.70
40287;DHT22;25998;46.604;13.610;2023-06-26T15:30:28;32.10;75.30
40287;DHT22;25998;46.604;13.610;2023-06-26T15:33:39;32.00;76.20
40287;DHT22;25998;46.604;13.610;2023-06-26T15:36:50;32.00;76.80
40287;DHT22;25998;46.604;13.610;2023-06-26T15:40:01;31.90;77.90
40287;DHT22;25998;46.604;13.610;2023-06-26T15:43:12;31.70;76.50
40287;DHT22;25998;46.604;13.610;2023-06-26T15:46:23;31.70;76.40
40287;DHT22;25998;46.604;13.610;2023-06-26T15:49:34;31.60;78.10
40287;DHT22;25998;46.604;13.610;2023-06-26T15:52:45;31.50;78.40
40287;DHT22;25998;46.604;13.610;2023-06-26T15:55:56;31.30;76.60
40287;DHT22;25998;46.604;13.610;2023-06-26T15:59:07;31.30;82.80
40287;DHT22;25998;46.604;13.610;2023-06-26T16:02:18;31.20;81.90
40287;DHT22;25998;46.604;13.610;2023-06-26T16:05:29;31.20;85.00
40287;DHT22;25998;46.604;13.610;2023-06-26T16:08:41;30.90;85.10
40287;DHT22;25998;46.604;13.610;2023-06-26T16:11:52;30.60;85.10
40287;DHT22;25998;46.604;13.610;2023-06-26T16:15:03;30.50;86.00
40287;DHT22;25998;46.604;13.610;2023-06-26T16:18:15;30.50;81.70
40287;DHT22;25998;46.604;13.610;2023-06-26T16:21:26;30.50;79.10
40287;DHT22;25998;46.604;13.610;2023-06-26T16:24:37;30.40;83.10
40287;DHT22;25998;46.604;13.610;2023-06-26T16:27:48;30.10;85.20
40287;DHT22;25998;46.604;13.610;2023-06-26T16:30:59;29.60;89.30
40287;DHT22;25998;46.604;13.610;2023-06-26T16:34:10;29.20;89.20
40287;DHT22;25998;46.604;13.610;2023-06-26T16:37:20;29.20;90.10
40287;DHT22;25998;46.604;13.610;2023-06-26T16:40:31;29.20;89.90
40287;DHT22;25998;46.604;13.610;2023-06-26T16:43:43;29.10;89.60
40287;DHT22;25998;46.604;13.610;2023-06-26T16:46:56;29.00;88.90
40287;DHT22;25998;46.604;13.610;2023-06-26T16:50:10;28.90;88.80
40287;DHT22;25998;46.604;13.610;2023-06-26T16:53:21;28.80;90.30
40287;DHT22;25998;46.604;13.610;2023-06-26T16:56:32;28.60;90.30
40287;DHT22;25998;46.604;13.610;2023-06-26T16:59:43;28.50;90.30
40287;DHT22;25998;46.604;13.610;2023-06-26T17:02:53;28.40;90.20
40287;DHT22;25998;46.604;13.610;2023-06-26T17:06:04;28.20;90.30
40287;DHT22;25998;46.604;13.610;2023-06-26T17:09:18;28.20;90.90
40287;DHT22;25998;46.604;13.610;2023-06-26T17:12:28;28.00;90.80
40287;DHT22;25998;46.604;13.610;2023-06-26T17:15:39;27.80;90.90
40287;DHT22;25998;46.604;13.610;2023-06-26T17:18:50;27.60;90.90
40287;DHT22;25998;46.604;13.610;2023-06-26T17:22:02;27.80;90.90
40287;DHT22;25998;46.604;13.610;2023-06-26T17:25:13;27.80;90.70
40287;DHT22;25998;46.604;13.610;2023-06-26T17:28:24;27.60;91.30
40287;DHT22;25998;46.604;13.610;2023-06-26T17:31:35;27.30;91.70
40287;DHT22;25998;46.604;13.610;2023-06-26T17:34:46;27.20;91.70
40287;DHT22;25998;46.604;13.610;2023-06-26T17:37:57;27.00;91.70
40287;DHT22;25998;46.604;13.610;2023-06-26T17:41:08;26.80;91.60
40287;DHT22;25998;46.604;13.610;2023-06-26T17:44:19;26.80;92.10
40287;DHT22;25998;46.604;13.610;2023-06-26T17:47:32;26.60;92.00
40287;DHT22;25998;46.604;13.610;2023-06-26T17:50:43;26.40;92.10
40287;DHT22;25998;46.604;13.610;2023-06-26T17:53:54;26.30;92.50
40287;DHT22;25998;46.604;13.610;2023-06-26T17:57:05;26.10;92.60
40287;DHT22;25998;46.604;13.610;2023-06-26T18:00:16;26.00;92.30
40287;DHT22;25998;46.604;13.610;2023-06-26T18:03:27;25.90;92.60
40287;DHT22;25998;46.604;13.610;2023-06-26T18:06:38;25.90;92.60
40287;DHT22;25998;46.604;13.610;2023-06-26T18:09:49;26.00;92.30
40287;DHT22;25998;46.604;13.610;2023-06-26T18:13:00;26.00;92.20
40287;DHT22;25998;46.604;13.610;2023-06-26T18:16:11;25.90;92.00
40287;DHT22;25998;46.604;13.610;2023-06-26T18:19:23;25.90;92.40
40287;DHT22;25998;46.604;13.610;2023-06-26T18:22:34;25.90;92.70
40287;DHT22;25998;46.604;13.610;2023-06-26T18:25:45;25.90;92.60
40287;DHT22;25998;46.604;13.610;2023-06-26T18:28:56;25.90;92.30
40287;DHT22;25998;46.604;13.610;2023-06-26T18:32:07;25.70;92.70
40287;DHT22;25998;46.604;13.610;2023-06-26T18:35:18;25.70;92.30
40287;DHT22;25998;46.604;13.610;2023-06-26T18:38:29;25.70;92.50
40287;DHT22;25998;46.604;13.610;2023-06-26T18:41:40;25.60;92.10
40287;DHT22;25998;46.604;13.610;2023-06-26T18:44:51;25.60;92.50
40287;DHT22;25998;46.604;13.610;2023-06-26T18:48:02;25.40;92.60
40287;DHT22;25998;46.604;13.610;2023-06-26T18:51:15;25.10;92.60
40287;DHT22;25998;46.604;13.610;2023-06-26T18:54:26;25.20;92.40
40287;DHT22;25998;46.604;13.610;2023-06-26T18:57:37;24.90;92.60
40287;DHT22;25998;46.604;13.610;2023-06-26T19:00:48;25.00;93.00
40287;DHT22;25998;46.604;13.610;2023-06-26T19:03:59;25.00;92.60
40287;DHT22;25998;46.604;13.610;2023-06-26T19:07:10;25.00;92.60
40287;DHT22;25998;46.604;13.610;2023-06-26T19:10:21;25.00;92.90
40287;DHT22;25998;46.604;13.610;2023-06-26T19:13:32;25.30;92.50
40287;DHT22;25998;46.604;13.610;2023-06-26T19:16:43;24.80;92.90
40287;DHT22;25998;46.604;13.610;2023-06-26T19:19:54;24.50;92.70
40287;DHT22;25998;46.604;13.610;2023-06-26T19:23:05;24.50;93.00
40287;DHT22;25998;46.604;13.610;2023-06-26T19:26:16;24.60;93.20
40287;DHT22;25998;46.604;13.610;2023-06-26T19:29:26;24.40;93.10
40287;DHT22;25998;46.604;13.610;2023-06-26T19:32:37;24.20;93.40
40287;DHT22;25998;46.604;13.610;2023-06-26T19:35:48;24.30;93.30
40287;DHT22;25998;46.604;13.610;2023-06-26T19:38:59;24.20;93.10
40287;DHT22;25998;46.604;13.610;2023-06-26T19:42:10;24.20;93.20
40287;DHT22;25998;46.604;13.610;2023-06-26T19:45:21;24.10;93.00
40287;DHT22;25998;46.604;13.610;2023-06-26T19:48:34;24.30;93.10
40287;DHT22;25998;46.604;13.610;2023-06-26T19:51:47;24.40;93.00
40287;DHT22;25998;46.604;13.610;2023-06-26T19:54:58;24.20;93.40
40287;DHT22;25998;46.604;13.610;2023-06-26T19:58:09;24.00;94.00